Time;durP1;ratioP1;P1;durP2;ratioP2;P2;SDS_P1;SDS_P2;PMS_P1;PMS_P2;Temp;Humidity;BMP_temperature;BMP_pressure;BME280_temperature;BME280_humidity;BME280_pressure;Samples;Min_cycle;Max_cycle;Signal;HPM_P1;HPM_P2
2022/05/07 00:00:46;;;;;;;0.47;0.47;;;;;;;23.05;72.06;101448.03;5036018;28;20024;-70
2022/05/07 00:03:12;;;;;;;0.75;0.30;;;;;;;23.04;72.01;101451.81;5035572;28;20021;-70
2022/05/07 00:05:38;;;;;;;0.40;0.40;;;;;;;23.07;71.71;101443.19;5035534;28;20052;-70
2022/05/07 00:08:05;;;;;;;0.30;0.30;;;;;;;23.06;72.06;101445.09;5035573;28;20515;-70
2022/05/07 00:10:30;;;;;;;0.65;0.22;;;;;;;23.07;71.68;101444.06;5037757;28;20117;-70
2022/05/07 00:12:56;;;;;;;0.88;0.35;;;;;;;23.06;72.00;101446.97;5035453;28;20444;-70
2022/05/07 00:15:21;;;;;;;0.30;0.30;;;;;;;23.09;72.21;101447.44;5033990;28;20071;-70
2022/05/07 00:18:03;;;;;;;0.20;0.20;;;;;;;23.08;71.81;101437.53;5035404;28;20427;-70
2022/05/07 00:20:30;;;;;;;0.35;0.35;;;;;;;23.09;72.04;101441.97;5035200;28;20021;-70
2022/05/07 00:22:56;;;;;;;0.22;0.22;;;;;;;23.09;71.84;101441.97;5035568;28;20021;-70
2022/05/07 00:25:21;;;;;;;0.73;0.40;;;;;;;23.09;71.88;101436.47;5035077;28;20055;-70
2022/05/07 00:27:46;;;;;;;0.35;0.20;;;;;;;23.11;72.33;101444.53;5039406;28;20556;-70
2022/05/07 00:30:12;;;;;;;0.47;0.30;;;;;;;23.13;72.30;101436.09;5035111;28;20492;-70
2022/05/07 00:32:37;;;;;;;0.57;0.30;;;;;;;23.13;71.96;101433.34;5052185;28;20040;-68
2022/05/07 00:35:03;;;;;;;1.58;0.30;;;;;;;23.13;72.07;101441.59;5051299;28;20040;-70
2022/05/07 00:37:28;;;;;;;0.30;0.28;;;;;;;23.14;72.28;101437.81;5034724;28;20021;-70
2022/05/07 00:39:54;;;;;;;0.68;0.20;;;;;;;23.13;72.27;101436.09;5034994;28;20461;-70
2022/05/07 00:42:20;;;;;;;0.40;0.40;;;;;;;23.14;71.79;101432.31;5039306;28;20025;-70
2022/05/07 00:44:45;;;;;;;0.57;0.20;;;;;;;23.16;71.33;101435.72;5034848;28;20025;-70
2022/05/07 00:47:13;;;;;;;0.60;0.30;;;;;;;23.16;71.82;101435.72;5034803;28;20108;-70
2022/05/07 00:49:40;;;;;;;0.45;0.30;;;;;;;23.16;71.89;101430.22;5034975;28;20029;-70
2022/05/07 00:52:06;;;;;;;0.20;0.20;;;;;;;23.18;71.61;101422.66;5034810;28;20056;-70
2022/05/07 00:54:31;;;;;;;0.88;0.40;;;;;;;23.17;71.58;101426.44;5034523;28;20476;-70
2022/05/07 00:56:57;;;;;;;0.28;0.22;;;;;;;23.16;71.72;101424.75;5039478;28;20021;-70
2022/05/07 00:59:23;;;;;;;0.35;0.30;;;;;;;23.16;71.56;101424.75;5034443;28;20483;-70
2022/05/07 01:01:48;;;;;;;0.30;0.30;;;;;;;23.16;72.00;101422.00;5034591;28;20025;-70
2022/05/07 01:04:13;;;;;;;0.50;0.30;;;;;;;23.19;71.53;101418.91;5034495;28;20083;-70
2022/05/07 01:06:39;;;;;;;0.47;0.45;;;;;;;23.17;72.14;101415.47;5034375;28;20108;-70
2022/05/07 01:09:05;;;;;;;0.25;0.25;;;;;;;23.17;71.00;101410.84;5036465;28;20031;-69
2022/05/07 01:11:31;;;;;;;0.43;0.30;;;;;;;23.19;71.12;101413.41;5036094;28;20030;-69
2022/05/07 01:13:57;;;;;;;1.13;0.52;;;;;;;23.20;71.48;101417.88;5043388;28;20017;-68
2022/05/07 01:16:23;;;;;;;0.90;0.30;;;;;;;23.19;71.87;101408.78;5047386;28;20044;-70
2022/05/07 01:18:49;;;;;;;0.40;0.40;;;;;;;23.19;71.99;101403.31;5034270;28;20033;-70
2022/05/07 01:21:17;;;;;;;0.38;0.30;;;;;;;23.18;71.33;101397.97;5032874;28;20449;-70
2022/05/07 01:23:43;;;;;;;0.25;0.25;;;;;;;23.19;71.29;101399.72;5037511;28;20025;-69
2022/05/07 01:26:09;;;;;;;0.55;0.30;;;;;;;23.22;71.45;101402.06;5034059;28;20035;-69
2022/05/07 01:28:35;;;;;;;0.22;0.22;;;;;;;23.20;71.56;101395.91;5033795;28;20057;-70
2022/05/07 01:31:01;;;;;;;0.70;0.30;;;;;;;23.21;71.32;101394.88;5032616;28;20039;-70
2022/05/07 01:33:26;;;;;;;1.58;0.40;;;;;;;23.21;71.29;101397.63;5033836;28;20030;-70
2022/05/07 01:35:52;;;;;;;0.32;0.32;;;;;;;23.20;71.63;101383.06;5033868;28;20018;-70
2022/05/07 01:38:17;;;;;;;0.35;0.35;;;;;;;23.22;71.60;101396.59;5035193;28;20033;-70
2022/05/07 01:40:43;;;;;;;0.28;0.28;;;;;;;23.20;70.97;101393.19;5033791;28;20029;-69
2022/05/07 01:43:08;;;;;;;1.23;0.50;;;;;;;23.23;71.77;101387.31;5032473;28;20053;-70
2022/05/07 01:45:33;;;;;;;0.60;0.32;;;;;;;23.23;71.71;101381.81;5033584;28;20063;-70
2022/05/07 01:48:10;;;;;;;0.45;0.40;;;;;;;23.23;71.72;101387.31;5032869;28;20025;-69
2022/05/07 01:50:40;;;;;;;0.38;0.35;;;;;;;23.23;71.83;101390.91;5033453;28;20029;-69
2022/05/07 01:53:11;;;;;;;0.98;0.88;;;;;;;23.24;71.73;101378.88;5039105;28;20029;-70
2022/05/07 01:55:36;;;;;;;0.38;0.30;;;;;;;23.23;71.19;101381.81;5039280;28;20080;-70
2022/05/07 01:58:02;;;;;;;0.98;0.47;;;;;;;23.23;71.73;101371.69;5033531;28;20484;-69
2022/05/07 02:00:29;;;;;;;0.60;0.40;;;;;;;23.23;71.50;101371.69;5033348;28;20461;-70
2022/05/07 02:02:55;;;;;;;0.88;0.38;;;;;;;23.24;71.55;101362.44;5033445;28;20381;-70
2022/05/07 02:05:22;;;;;;;0.20;0.20;;;;;;;23.25;72.16;101366.03;5033224;28;20029;-68
2022/05/07 02:07:47;;;;;;;0.63;0.35;;;;;;;23.24;71.35;101361.56;5033284;28;20025;-69
2022/05/07 02:10:12;;;;;;;0.60;0.40;;;;;;;23.24;72.21;101372.56;5033708;28;20026;-69
2022/05/07 02:12:38;;;;;;;0.52;0.40;;;;;;;23.24;71.53;101372.56;5033140;28;20472;-69
2022/05/07 02:15:03;;;;;;;0.90;0.45;;;;;;;23.26;71.87;101364.97;5033186;28;20029;-69
2022/05/07 02:17:28;;;;;;;0.20;0.20;;;;;;;23.24;71.70;101370.66;5033000;28;20108;-69
2022/05/07 02:19:54;;;;;;;0.65;0.60;;;;;;;23.24;72.34;101362.44;5033071;28;20105;-69
2022/05/07 02:22:19;;;;;;;0.75;0.22;;;;;;;23.25;71.76;101358.63;5032928;28;20398;-69
2022/05/07 02:24:46;;;;;;;0.68;0.30;;;;;;;23.25;71.53;101363.28;5033503;28;20025;-69
2022/05/07 02:27:11;;;;;;;0.20;0.20;;;;;;;23.27;72.40;101372.16;5036251;28;20111;-70
2022/05/07 02:29:36;;;;;;;0.20;0.10;;;;;;;23.27;71.53;101350.22;5042890;28;20013;-69
2022/05/07 02:32:05;;;;;;;0.65;0.32;;;;;;;23.26;72.05;101348.50;5046980;28;20040;-69
2022/05/07 02:34:31;;;;;;;0.32;0.25;;;;;;;23.27;72.14;101355.69;5031478;28;20384;-69
2022/05/07 02:36:57;;;;;;;0.20;0.20;;;;;;;23.27;72.50;101358.44;5031588;28;20079;-69
2022/05/07 02:39:23;;;;;;;0.52;0.30;;;;;;;23.27;71.86;101351.06;5033652;28;20021;-69
2022/05/07 02:44:32;;;;;;;1.42;0.57;;;;;;;23.26;72.26;101343.03;5032849;28;20083;-69
2022/05/07 02:46:57;;;;;;;0.45;0.30;;;;;;;23.25;71.71;101357.78;5032707;28;20038;-69
2022/05/07 02:49:23;;;;;;;0.77;0.43;;;;;;;23.27;71.83;101342.84;5032455;28;20483;-69
2022/05/07 02:51:48;;;;;;;0.40;0.30;;;;;;;23.27;71.85;101352.97;5032583;28;20030;-69
2022/05/07 02:54:14;;;;;;;0.40;0.30;;;;;;;23.26;72.13;101351.25;5036020;28;20057;-69
2022/05/07 02:56:39;;;;;;;0.40;0.30;;;;;;;23.26;71.07;101343.88;5032494;28;20049;-69
2022/05/07 02:59:04;;;;;;;0.60;0.40;;;;;;;23.28;71.63;101346.44;5032447;28;20457;-69
2022/05/07 03:01:29;;;;;;;0.75;0.50;;;;;;;23.30;71.90;101349.81;5032353;28;20049;-69
2022/05/07 03:03:55;;;;;;;0.43;0.38;;;;;;;23.29;71.82;101342.63;5032526;28;20045;-69
2022/05/07 03:06:20;;;;;;;0.38;0.38;;;;;;;23.28;72.57;101335.44;5032331;28;20595;-69
2022/05/07 03:08:45;;;;;;;1.27;0.30;;;;;;;23.28;71.97;101340.94;5051494;28;20010;-69
2022/05/07 03:11:11;;;;;;;0.40;0.40;;;;;;;23.28;71.96;101340.94;5032511;28;20025;-69
2022/05/07 03:13:36;;;;;;;0.38;0.38;;;;;;;23.29;71.89;101339.91;5032333;28;20026;-69
2022/05/07 03:16:02;;;;;;;0.82;0.45;;;;;;;23.29;72.53;101345.38;5032711;28;20385;-69
2022/05/07 03:18:27;;;;;;;0.75;0.63;;;;;;;23.28;72.26;101340.94;5032232;28;20025;-69
2022/05/07 03:20:52;;;;;;;0.77;0.50;;;;;;;23.29;71.61;101342.63;5032374;28;20064;-70
2022/05/07 03:23:18;;;;;;;0.50;0.50;;;;;;;23.28;72.36;101336.31;5034573;28;20028;-69
2022/05/07 03:25:43;;;;;;;0.52;0.43;;;;;;;23.30;71.55;101344.34;5032871;28;20115;-69
2022/05/07 03:28:08;;;;;;;1.52;0.50;;;;;;;23.30;72.22;101341.59;5032160;28;20171;-69
2022/05/07 03:30:33;;;;;;;0.50;0.50;;;;;;;23.28;71.84;101338.19;5032019;28;20057;-69
2022/05/07 03:32:59;;;;;;;0.75;0.60;;;;;;;23.30;72.75;101349.81;5032295;28;20044;-69
2022/05/07 03:35:24;;;;;;;0.30;0.30;;;;;;;23.30;71.90;101349.81;5032038;28;20025;-69
2022/05/07 03:37:49;;;;;;;0.40;0.40;;;;;;;23.31;72.53;101346.03;5037051;28;20018;-69
2022/05/07 03:40:14;;;;;;;0.55;0.45;;;;;;;23.31;71.91;101324.09;5032139;28;20021;-69
2022/05/07 03:42:40;;;;;;;0.65;0.50;;;;;;;23.31;72.60;101341.41;5032451;28;20453;-68
2022/05/07 03:45:05;;;;;;;0.90;0.40;;;;;;;23.30;72.17;101344.34;5035327;28;20041;-69
2022/05/07 03:47:31;;;;;;;0.47;0.30;;;;;;;23.30;72.28;101336.09;5032010;28;20240;-69
2022/05/07 03:49:56;;;;;;;0.30;0.30;;;;;;;23.29;72.37;101332.50;5033142;28;20089;-70
2022/05/07 03:55:05;;;;;;;0.40;0.27;;;;;;;23.32;71.89;101323.03;5032165;28;20028;-69
2022/05/07 03:57:31;;;;;;;0.52;0.38;;;;;;;23.31;72.58;101335.91;5030589;28;20246;-69
2022/05/07 03:59:57;;;;;;;0.43;0.30;;;;;;;23.32;72.06;101331.28;5032042;28;20029;-69
2022/05/07 04:02:23;;;;;;;2.00;0.35;;;;;;;23.38;72.11;101336.00;5031751;28;20034;-69
2022/05/07 04:04:48;;;;;;;2.15;0.40;;;;;;;23.46;71.40;101321.31;5031930;28;20037;-69
2022/05/07 04:07:15;;;;;;;0.30;0.30;;;;;;;23.54;72.14;101316.56;5036569;28;20021;-69
2022/05/07 04:09:40;;;;;;;0.30;0.30;;;;;;;23.59;71.98;101325.09;5031081;28;20420;-69
2022/05/07 04:12:06;;;;;;;0.43;0.38;;;;;;;23.64;71.91;101324.50;5035589;28;19917;-69
2022/05/07 04:14:31;;;;;;;0.38;0.30;;;;;;;23.69;71.76;101322.88;5035291;28;20034;-69
2022/05/07 04:16:57;;;;;;;0.40;0.40;;;;;;;23.73;72.47;101322.50;5035488;28;20117;-69
2022/05/07 04:19:22;;;;;;;0.45;0.30;;;;;;;23.76;71.81;101317.47;5033902;28;20025;-69
2022/05/07 04:21:47;;;;;;;0.32;0.30;;;;;;;23.78;72.50;101314.50;5039442;28;20040;-69
2022/05/07 04:24:12;;;;;;;0.30;0.30;;;;;;;23.82;72.62;101315.81;5035273;28;20025;-69
2022/05/07 04:26:38;;;;;;;0.35;0.30;;;;;;;23.84;72.51;101313.72;5041735;28;20033;-70
2022/05/07 04:29:04;;;;;;;1.15;0.40;;;;;;;23.87;71.97;101313.34;5035071;28;20063;-69
2022/05/07 04:31:30;;;;;;;0.55;0.43;;;;;;;23.88;72.60;101315.91;5033619;28;20034;-69
2022/05/07 04:33:55;;;;;;;0.50;0.40;;;;;;;23.90;72.63;101308.31;5035176;28;20021;-69
2022/05/07 04:36:20;;;;;;;0.30;0.30;;;;;;;23.91;72.73;101317.41;5039254;28;20044;-69
2022/05/07 04:38:45;;;;;;;1.95;0.40;;;;;;;23.93;72.50;101312.56;5034928;28;20464;-69
2022/05/07 04:41:11;;;;;;;1.02;0.40;;;;;;;23.94;72.64;101314.25;5034950;28;20025;-69
2022/05/07 04:43:36;;;;;;;0.20;0.20;;;;;;;23.96;72.84;101320.38;5035194;28;20025;-69
2022/05/07 04:46:01;;;;;;;1.05;0.43;;;;;;;23.98;73.01;101315.53;5035224;28;20029;-69
2022/05/07 04:48:27;;;;;;;0.40;0.20;;;;;;;23.97;72.95;101314.69;5034698;28;20021;-69
2022/05/07 04:50:52;;;;;;;0.47;0.40;;;;;;;24.01;73.20;101315.16;5035999;28;20136;-69
2022/05/07 04:53:17;;;;;;;0.20;0.20;;;;;;;24.00;73.03;101321.69;5034647;28;20055;-69
2022/05/07 04:55:43;;;;;;;0.43;0.30;;;;;;;24.03;72.99;101325.97;5034763;28;20029;-69
2022/05/07 04:58:08;;;;;;;0.40;0.40;;;;;;;24.03;73.03;101318.56;5033455;28;20017;-69
2022/05/07 05:00:33;;;;;;;0.43;0.40;;;;;;;24.04;73.36;101320.28;5034489;28;20068;-70
2022/05/07 05:02:58;;;;;;;0.40;0.30;;;;;;;24.05;72.74;101313.72;5034585;28;20029;-69
2022/05/07 05:05:25;;;;;;;0.57;0.45;;;;;;;24.08;72.83;101315.22;5043865;28;20020;-69
2022/05/07 05:07:51;;;;;;;0.60;0.40;;;;;;;24.09;73.40;101314.19;5049523;28;20065;-69
2022/05/07 05:10:16;;;;;;;0.50;0.40;;;;;;;24.09;73.40;101312.28;5034226;28;20076;-69
2022/05/07 05:12:41;;;;;;;0.57;0.43;;;;;;;24.10;73.26;101313.97;5034392;28;20056;-69
2022/05/07 05:15:08;;;;;;;0.45;0.40;;;;;;;24.10;73.31;101308.47;5034335;28;20125;-69
2022/05/07 05:17:34;;;;;;;0.75;0.50;;;;;;;24.11;73.27;101301.94;5033184;28;20056;-69
2022/05/07 05:20:01;;;;;;;0.25;0.25;;;;;;;24.14;73.26;101304.28;5037755;28;20036;-70
2022/05/07 05:22:27;;;;;;;0.88;0.35;;;;;;;24.13;73.56;101308.06;5034056;28;20469;-70
2022/05/07 05:24:53;;;;;;;0.38;0.38;;;;;;;24.11;73.38;101303.84;5034127;28;20071;-70
2022/05/07 05:27:19;;;;;;;1.13;0.60;;;;;;;24.15;73.88;101305.97;5033871;28;20272;-70
2022/05/07 05:29:44;;;;;;;0.93;0.52;;;;;;;24.18;73.33;101305.56;5034077;28;20041;-70
2022/05/07 05:32:09;;;;;;;0.80;0.70;;;;;;;24.17;73.09;101306.63;5033989;28;20509;-70
2022/05/07 05:34:34;;;;;;;0.68;0.40;;;;;;;24.20;73.17;101303.50;5038429;28;20029;-70
2022/05/07 05:37:00;;;;;;;0.88;0.70;;;;;;;24.20;73.22;101300.75;5033910;28;20033;-70
2022/05/07 05:39:25;;;;;;;0.77;0.45;;;;;;;24.18;73.18;101305.56;5033788;28;20110;-70
2022/05/07 05:41:51;;;;;;;1.38;0.50;;;;;;;24.22;73.05;101303.31;5043714;28;20029;-68
2022/05/07 05:44:16;;;;;;;0.40;0.40;;;;;;;24.22;73.00;101295.91;5033627;28;20025;-70
2022/05/07 05:46:43;;;;;;;0.40;0.40;;;;;;;24.23;73.75;101296.75;5033736;28;20056;-70
2022/05/07 05:49:08;;;;;;;0.52;0.32;;;;;;;24.24;73.93;101298.47;5033730;28;20029;-70
2022/05/07 05:51:33;;;;;;;0.40;0.40;;;;;;;24.23;73.96;101296.75;5040154;28;20063;-70
2022/05/07 05:53:59;;;;;;;0.63;0.40;;;;;;;24.25;73.46;101298.25;5033673;28;20104;-70
2022/05/07 05:56:24;;;;;;;0.82;0.50;;;;;;;24.23;73.98;101294.84;5033390;28;20022;-70
2022/05/07 05:58:49;;;;;;;0.35;0.35;;;;;;;24.26;73.40;101297.19;5032277;28;20025;-70
2022/05/07 06:01:14;;;;;;;0.30;0.30;;;;;;;24.27;74.04;101298.06;5033389;28;20381;-70
2022/05/07 06:03:40;;;;;;;0.88;0.40;;;;;;;24.28;74.02;101300.59;5033452;28;20025;-69
2022/05/07 06:06:05;;;;;;;0.70;0.40;;;;;;;24.28;73.76;101289.59;5034650;28;20460;-70
2022/05/07 06:08:30;;;;;;;0.57;0.30;;;;;;;24.29;74.01;101299.56;5033468;28;20457;-70
2022/05/07 06:10:57;;;;;;;0.65;0.40;;;;;;;24.29;74.21;101291.34;5033277;28;20070;-70
2022/05/07 06:13:24;;;;;;;0.50;0.50;;;;;;;24.28;73.81;101284.09;5031757;28;20025;-70
2022/05/07 06:15:51;;;;;;;0.47;0.47;;;;;;;24.30;74.11;101287.53;5032257;28;20540;-70
2022/05/07 06:18:21;;;;;;;0.47;0.32;;;;;;;24.30;73.57;101282.03;5033622;28;20029;-70
2022/05/07 06:20:47;;;;;;;0.40;0.40;;;;;;;24.32;73.40;101287.34;5037749;28;20036;-70
2022/05/07 06:23:12;;;;;;;1.42;0.30;;;;;;;24.32;74.03;101286.47;5044894;28;20056;-70
2022/05/07 06:28:24;;;;;;;0.40;0.40;;;;;;;24.35;73.51;101289.66;5032698;28;20074;-70
2022/05/07 06:30:50;;;;;;;1.00;0.55;;;;;;;24.35;74.31;101288.81;5032925;28;20283;-70
2022/05/07 06:33:15;;;;;;;0.40;0.30;;;;;;;24.35;73.97;101289.66;5032430;28;20135;-70
2022/05/07 06:35:40;;;;;;;0.28;0.28;;;;;;;24.36;74.43;101285.06;5038250;28;20296;-70
2022/05/07 06:38:06;;;;;;;0.50;0.47;;;;;;;24.34;73.96;101287.97;5032768;28;20103;-70
2022/05/07 06:40:31;;;;;;;0.40;0.40;;;;;;;24.36;73.94;101280.41;5032767;28;20025;-70
2022/05/07 06:42:57;;;;;;;0.30;0.30;;;;;;;24.37;74.52;101270.28;5032878;28;20049;-70
2022/05/07 06:45:22;;;;;;;0.32;0.30;;;;;;;24.36;74.45;101274.06;5032848;28;20426;-70
2022/05/07 06:47:48;;;;;;;1.10;0.50;;;;;;;24.37;74.50;101275.75;5037329;28;20111;-70
2022/05/07 06:50:13;;;;;;;0.22;0.22;;;;;;;24.38;73.82;101277.47;5032580;28;20037;-70
2022/05/07 06:52:45;;;;;;;0.55;0.40;;;;;;;24.39;74.33;101266.25;5032616;28;20031;-70
2022/05/07 06:55:15;;;;;;;1.58;0.40;;;;;;;24.40;74.69;101269.84;5031432;28;20021;-70
2022/05/07 06:57:41;;;;;;;0.68;0.32;;;;;;;24.41;74.27;101274.31;5032574;28;20029;-70
2022/05/07 07:00:08;;;;;;;1.58;0.50;;;;;;;24.42;73.93;101262.25;5046251;28;20033;-70
2022/05/07 07:02:33;;;;;;;0.38;0.38;;;;;;;24.40;74.59;101275.34;5031104;28;20032;-70
2022/05/07 07:05:00;;;;;;;0.40;0.40;;;;;;;24.42;73.99;101270.50;5032648;28;20117;-70
2022/05/07 07:07:25;;;;;;;0.90;0.30;;;;;;;24.42;74.13;101273.25;5032293;28;20113;-70
2022/05/07 07:09:51;;;;;;;0.85;0.70;;;;;;;24.42;74.26;101267.75;5032470;28;20442;-70
2022/05/07 07:12:16;;;;;;;0.30;0.30;;;;;;;24.43;74.20;101269.44;5032332;28;20033;-70
2022/05/07 07:14:42;;;;;;;0.75;0.45;;;;;;;24.44;74.07;101265.66;5038383;28;20026;-70
2022/05/07 07:17:07;;;;;;;0.63;0.40;;;;;;;24.45;74.13;101265.44;5031171;28;20474;-70
2022/05/07 07:19:34;;;;;;;0.65;0.47;;;;;;;24.43;74.25;101269.44;5032496;28;20029;-70
2022/05/07 07:22:00;;;;;;;0.70;0.50;;;;;;;24.44;73.82;101268.41;5032465;28;20017;-70
2022/05/07 07:24:25;;;;;;;0.43;0.40;;;;;;;24.44;74.14;101271.16;5032134;28;20438;-70
2022/05/07 07:26:50;;;;;;;0.28;0.28;;;;;;;24.44;74.24;101272.00;5032183;28;20548;-70
2022/05/07 07:29:16;;;;;;;1.67;0.47;;;;;;;24.45;74.47;101267.34;5038810;28;20469;-70
2022/05/07 07:31:41;;;;;;;1.63;0.73;;;;;;;24.46;74.51;101269.03;5032264;28;20079;-70
2022/05/07 07:34:06;;;;;;;0.50;0.40;;;;;;;24.47;74.10;101277.09;5031056;28;20132;-70
2022/05/07 07:36:31;;;;;;;0.75;0.40;;;;;;;24.47;74.42;101278.97;5032082;28;20362;-70
2022/05/07 07:38:58;;;;;;;0.50;0.40;;;;;;;24.49;74.38;101271.38;5037590;28;20028;-68
2022/05/07 07:41:24;;;;;;;0.63;0.50;;;;;;;24.47;74.29;101270.72;5048505;28;20481;-70
2022/05/07 07:43:49;;;;;;;0.25;0.25;;;;;;;24.47;74.51;101279.84;5033896;28;20036;-70
2022/05/07 07:48:58;;;;;;;0.32;0.32;;;;;;;24.49;74.84;101269.47;5036099;28;20045;-70
2022/05/07 07:51:24;;;;;;;0.80;0.38;;;;;;;24.52;74.80;101268.22;5035752;28;20461;-70
2022/05/07 07:53:49;;;;;;;0.20;0.20;;;;;;;24.52;73.96;101273.72;5035960;28;20052;-70
2022/05/07 07:56:15;;;;;;;0.65;0.50;;;;;;;24.50;74.77;101273.94;5035861;28;20148;-70
2022/05/07 07:58:41;;;;;;;0.68;0.50;;;;;;;24.50;74.70;101270.31;5036838;28;20029;-70
2022/05/07 08:01:06;;;;;;;0.50;0.30;;;;;;;24.49;74.44;101266.72;5036773;28;20032;-70
2022/05/07 08:03:31;;;;;;;0.70;0.30;;;;;;;24.50;75.16;101278.56;5035573;28;20468;-70
2022/05/07 08:05:57;;;;;;;0.85;0.40;;;;;;;24.51;75.17;101283.00;5035762;28;20029;-70
2022/05/07 08:13:54;;;;;;;0.32;0.30;;;;;;;24.55;74.19;101287.94;5048182;28;20300;-71
2022/05/07 08:16:21;;;;;;;0.25;0.22;;;;;;;24.54;74.28;101282.63;5035420;28;20030;-70
2022/05/07 08:18:47;;;;;;;0.43;0.40;;;;;;;24.54;75.10;101285.38;5035495;28;20380;-70
2022/05/07 08:21:13;;;;;;;0.52;0.30;;;;;;;24.55;74.29;101278.84;5035384;28;20033;-70
2022/05/07 08:23:40;;;;;;;0.40;0.30;;;;;;;24.56;75.28;101286.03;5035272;28;20033;-70
2022/05/07 08:26:06;;;;;;;0.40;0.40;;;;;;;24.56;74.80;101286.03;5035634;28;20037;-70
2022/05/07 08:28:32;;;;;;;0.63;0.30;;;;;;;24.55;74.83;101290.69;5037851;28;20046;-70
2022/05/07 08:30:58;;;;;;;0.45;0.28;;;;;;;24.57;75.03;101294.06;5035167;28;20079;-70
2022/05/07 08:33:24;;;;;;;0.57;0.38;;;;;;;24.57;75.05;101293.22;5035018;28;20030;-70
2022/05/07 08:35:49;;;;;;;0.65;0.28;;;;;;;24.58;74.92;101289.44;5035182;28;20021;-70
2022/05/07 08:38:15;;;;;;;0.50;0.30;;;;;;;24.58;74.62;101292.19;5034917;28;20052;-70
2022/05/07 08:40:41;;;;;;;0.82;0.30;;;;;;;24.57;74.84;101296.81;5035273;28;20025;-69
2022/05/07 08:43:06;;;;;;;0.30;0.30;;;;;;;24.58;75.17;101294.91;5036602;28;20041;-70
2022/05/07 08:45:33;;;;;;;0.30;0.30;;;;;;;24.58;74.67;101300.41;5033501;28;20468;-70
2022/05/07 08:47:59;;;;;;;0.73;0.70;;;;;;;24.59;74.43;101296.63;5033617;28;20057;-70
2022/05/07 08:50:26;;;;;;;0.77;0.40;;;;;;;24.61;75.03;101294.50;5034660;28;20304;-70
2022/05/07 08:52:51;;;;;;;0.73;0.30;;;;;;;24.61;74.93;101294.50;5039791;28;20121;-70
2022/05/07 08:55:19;;;;;;;0.30;0.30;;;;;;;24.60;75.24;101298.31;5033298;28;20120;-70
2022/05/07 08:57:46;;;;;;;0.55;0.30;;;;;;;24.61;75.02;101294.50;5038537;28;20025;-70
2022/05/07 09:00:13;;;;;;;1.15;0.40;;;;;;;24.60;74.80;101298.31;5034655;28;20110;-71
2022/05/07 09:02:43;;;;;;;0.47;0.20;;;;;;;24.61;74.95;101291.75;5034541;28;20028;-71
2022/05/07 09:05:13;;;;;;;1.23;0.50;;;;;;;24.62;75.27;101296.22;5034575;28;20600;-70
2022/05/07 09:07:40;;;;;;;1.25;0.70;;;;;;;24.63;75.30;101292.41;5034499;28;20033;-71
2022/05/07 09:10:11;;;;;;;0.45;0.45;;;;;;;24.63;75.03;101297.91;5035942;28;20021;-70
2022/05/07 09:12:37;;;;;;;0.40;0.40;;;;;;;24.63;74.89;101297.91;5034284;28;20033;-70
2022/05/07 09:15:05;;;;;;;1.10;0.40;;;;;;;24.64;74.85;101299.59;5034391;28;20034;-71
2022/05/07 09:17:30;;;;;;;0.57;0.40;;;;;;;24.62;75.08;101307.19;5032847;28;20029;-71
2022/05/07 09:19:56;;;;;;;0.40;0.40;;;;;;;24.63;74.91;101302.56;5034337;28;20029;-70
2022/05/07 09:22:21;;;;;;;0.32;0.32;;;;;;;24.60;75.11;101309.31;5034143;28;20080;-70
2022/05/07 09:24:55;;;;;;;0.25;0.25;;;;;;;24.60;75.21;101312.91;5034122;28;20018;-70
2022/05/07 09:27:21;;;;;;;0.35;0.35;;;;;;;24.59;75.00;101316.72;5035263;28;20072;-70
2022/05/07 09:30:02;;;;;;;0.85;0.60;;;;;;;24.61;75.44;101316.50;5034150;28;20184;-70
2022/05/07 09:32:38;;;;;;;0.38;0.30;;;;;;;24.61;75.44;101322.00;5046443;28;20112;-70
2022/05/07 09:38:00;;;;;;;0.25;0.25;;;;;;;24.62;74.85;101328.34;5034050;28;20075;-70
2022/05/07 09:40:27;;;;;;;0.30;0.30;;;;;;;24.62;74.88;101329.19;5033693;28;20109;-70
2022/05/07 09:42:56;;;;;;;0.50;0.50;;;;;;;24.64;75.32;101357.34;5038079;28;20068;-70
2022/05/07 09:45:21;;;;;;;0.35;0.30;;;;;;;24.63;75.02;101388.63;5033656;28;20025;-70
2022/05/07 09:47:46;;;;;;;0.30;0.30;;;;;;;24.63;74.73;101413.38;5032381;28;20021;-70
2022/05/07 09:50:24;;;;;;;0.65;0.30;;;;;;;24.65;75.72;101425.00;5033646;28;20384;-71
2022/05/07 09:58:20;;;;;;;2.55;0.50;;;;;;;24.65;75.28;101438.75;5033986;28;20056;-71
2022/05/07 10:01:09;;;;;;;0.57;0.30;;;;;;;24.67;74.91;101435.81;5032175;28;20075;-70
2022/05/07 10:03:34;;;;;;;0.63;0.30;;;;;;;24.65;75.57;101460.75;5033320;28;20025;-71
2022/05/07 10:06:34;;;;;;;0.50;0.30;;;;;;;24.66;74.94;101461.59;5033454;28;20040;-70
2022/05/07 10:09:23;;;;;;;0.20;0.20;;;;;;;24.67;75.22;101472.41;5010414;28;20267;-70
2022/05/07 10:11:52;;;;;;;0.50;0.20;;;;;;;24.67;75.03;101483.38;5011131;28;20033;-71
2022/05/07 10:14:31;;;;;;;0.20;0.20;;;;;;;24.68;75.05;101487.00;5015377;28;20041;-70
2022/05/07 10:16:58;;;;;;;1.63;0.60;;;;;;;24.69;75.56;101488.69;5021220;28;20081;-70
2022/05/07 10:19:34;;;;;;;0.35;0.20;;;;;;;24.69;75.04;101499.69;4995644;28;20088;-70
2022/05/07 10:22:00;;;;;;;1.55;0.28;;;;;;;24.66;75.53;101517.44;5011071;28;20022;-70
2022/05/07 10:24:25;;;;;;;0.30;0.20;;;;;;;24.69;75.57;101527.19;5010726;28;20037;-70
2022/05/07 10:26:50;;;;;;;1.02;0.30;;;;;;;24.70;75.13;101537.16;5010919;28;20184;-70
2022/05/07 10:29:26;;;;;;;0.20;0.20;;;;;;;24.66;75.52;101531.19;5012167;28;20054;-70
2022/05/07 10:32:03;;;;;;;0.47;0.20;;;;;;;24.69;75.46;101538.19;5010775;28;20029;-70
2022/05/07 10:34:29;;;;;;;0.45;0.10;;;;;;;24.68;75.33;101548.31;5010577;28;20448;-70
2022/05/07 10:37:04;;;;;;;0.30;0.30;;;;;;;24.70;75.56;101546.25;5010751;28;20033;-71
2022/05/07 10:39:31;;;;;;;0.10;0.10;;;;;;;24.70;75.07;101554.50;5010530;28;20121;-70
2022/05/07 10:41:57;;;;;;;0.20;0.20;;;;;;;24.69;75.03;101566.56;5010798;28;20362;-71
2022/05/07 10:44:31;;;;;;;0.10;0.10;;;;;;;24.70;75.37;101579.25;5017340;28;20517;-71
2022/05/07 10:47:08;;;;;;;0.50;0.22;;;;;;;24.71;75.27;101564.47;5032787;28;20029;-71
2022/05/07 10:49:34;;;;;;;0.63;0.25;;;;;;;24.70;74.68;101576.50;5032550;28;20033;-71
2022/05/07 10:52:03;;;;;;;0.85;0.20;;;;;;;24.72;75.34;101585.41;5032650;28;20033;-70
2022/05/07 10:54:28;;;;;;;0.45;0.30;;;;;;;24.71;74.97;101591.94;5032486;28;20041;-71
2022/05/07 10:56:56;;;;;;;0.50;0.25;;;;;;;24.71;75.61;101597.44;5038857;28;20025;-70
2022/05/07 10:59:24;;;;;;;0.30;0.20;;;;;;;24.71;75.44;101608.44;5033406;28;20025;-70
2022/05/07 11:01:50;;;;;;;0.32;0.30;;;;;;;24.72;74.71;101623.03;5032595;28;20018;-70
2022/05/07 11:04:18;;;;;;;0.25;0.10;;;;;;;24.72;75.21;101634.91;5032516;28;20030;-70
2022/05/07 11:06:51;;;;;;;0.65;0.20;;;;;;;24.73;74.96;101639.34;5032490;28;20029;-70
2022/05/07 11:09:22;;;;;;;0.47;0.20;;;;;;;24.73;75.10;101644.84;5032432;28;20025;-71
2022/05/07 11:11:57;;;;;;;0.43;0.28;;;;;;;24.74;74.80;101646.56;5036483;28;20354;-70
2022/05/07 11:14:26;;;;;;;0.20;0.20;;;;;;;24.73;75.26;101650.34;5032298;28;20045;-70
2022/05/07 11:16:53;;;;;;;0.30;0.30;;;;;;;24.75;75.12;101659.25;5032436;28;20025;-70
2022/05/07 11:19:34;;;;;;;0.65;0.28;;;;;;;24.73;74.64;101661.34;5033744;28;20056;-70
2022/05/07 11:22:02;;;;;;;0.20;0.20;;;;;;;24.74;74.60;101663.03;5036570;28;20029;-70
2022/05/07 11:24:30;;;;;;;1.05;0.30;;;;;;;24.74;75.13;101676.78;5036298;28;20437;-70
2022/05/07 11:26:57;;;;;;;0.43;0.43;;;;;;;24.73;74.98;101666.84;5037096;28;20060;-70
2022/05/07 11:29:23;;;;;;;0.22;0.20;;;;;;;24.74;75.41;101674.06;5036264;28;20148;-70
2022/05/07 11:32:07;;;;;;;0.65;0.30;;;;;;;24.74;75.19;101679.53;5051808;28;20014;-71
2022/05/07 11:34:34;;;;;;;0.50;0.25;;;;;;;24.73;74.71;101694.34;5036130;28;20021;-71
2022/05/07 11:37:10;;;;;;;1.23;0.40;;;;;;;24.75;74.92;101692.25;5034948;28;20036;-71
2022/05/07 11:39:49;;;;;;;1.15;0.20;;;;;;;24.75;74.67;101692.25;5035581;28;20029;-70
2022/05/07 11:42:34;;;;;;;0.40;0.30;;;;;;;24.75;75.46;101695.00;5036098;28;20022;-70
2022/05/07 11:48:05;;;;;;;0.60;0.30;;;;;;;24.74;74.60;101712.53;5036248;28;20098;-70
2022/05/07 11:50:41;;;;;;;0.28;0.28;;;;;;;24.74;75.16;101711.69;5035791;28;20064;-70